createdAt,value
2023-05-16T00:00:04.859Z,1020.03
2023-05-16T00:05:03.481Z,1020.01
2023-05-16T00:10:04.154Z,1020.01
2023-05-16T00:15:03.049Z,1019.99
2023-05-16T00:20:09.162Z,1019.99
2023-05-16T00:25:03.141Z,1019.97
2023-05-16T00:30:04.222Z,1020.02
2023-05-16T00:35:03.522Z,1020.02
2023-05-16T00:40:04.304Z,1020.05
2023-05-16T00:45:03.247Z,1020.08
2023-05-16T00:50:04.550Z,1020.07
2023-05-16T00:55:03.124Z,1020.08
2023-05-16T01:00:04.338Z,1020.11
2023-05-16T01:05:03.139Z,1020.13
2023-05-16T01:10:03.971Z,1020.15
2023-05-16T01:15:03.211Z,1020.14
2023-05-16T01:20:04.264Z,1020.07
2023-05-16T01:25:03.042Z,1020.03
2023-05-16T01:30:04.119Z,1019.97
2023-05-16T01:35:03.210Z,1019.95
2023-05-16T01:40:04.223Z,1019.95
2023-05-16T01:45:03.257Z,1019.91
2023-05-16T01:50:04.198Z,1019.9
2023-05-16T01:55:04.150Z,1019.91
2023-05-16T02:00:04.147Z,1019.89
2023-05-16T02:05:03.095Z,1019.87
2023-05-16T02:10:04.212Z,1019.89
2023-05-16T02:15:03.163Z,1019.89
2023-05-16T02:20:04.219Z,1019.93
2023-05-16T02:25:03.216Z,1019.94
2023-05-16T02:30:04.142Z,1019.97
2023-05-16T02:35:03.162Z,1019.99
2023-05-16T02:40:04.262Z,1019.99
2023-05-16T02:45:03.143Z,1019.94
2023-05-16T02:50:04.343Z,1019.89
2023-05-16T02:55:20.861Z,1019.86
2023-05-16T03:00:04.110Z,1019.84
2023-05-16T03:05:03.269Z,1019.85
2023-05-16T03:10:04.268Z,1019.87
2023-05-16T03:15:03.155Z,1019.83
2023-05-16T03:20:04.056Z,1019.83
2023-05-16T03:25:03.262Z,1019.89
2023-05-16T03:30:05.269Z,1019.87
2023-05-16T03:35:03.169Z,1019.79
2023-05-16T03:40:04.145Z,1019.76
2023-05-16T03:45:03.179Z,1019.73
2023-05-16T03:50:04.189Z,1019.69
2023-05-16T03:55:03.217Z,1019.73
2023-05-16T04:00:04.081Z,1019.69
2023-05-16T04:05:03.143Z,1019.69
2023-05-16T04:10:04.636Z,1019.69
2023-05-16T04:15:03.091Z,1019.67
2023-05-16T04:20:04.155Z,1019.7
2023-05-16T04:25:04.162Z,1019.66
2023-05-16T04:30:04.195Z,1019.69
2023-05-16T04:35:03.107Z,1019.7
2023-05-16T04:40:04.282Z,1019.67
2023-05-16T04:45:03.104Z,1019.67
2023-05-16T04:50:04.214Z,1019.61
2023-05-16T04:55:03.112Z,1019.55
2023-05-16T05:00:04.224Z,1019.45
2023-05-16T05:05:03.244Z,1019.41
2023-05-16T05:10:04.128Z,1019.35
2023-05-16T05:15:03.202Z,1019.32
2023-05-16T05:20:05.269Z,1019.35
2023-05-16T05:25:03.032Z,1019.3
2023-05-16T05:30:04.264Z,1019.3
2023-05-16T05:35:03.150Z,1019.28
2023-05-16T05:40:04.164Z,1019.29
2023-05-16T05:45:03.173Z,1019.3
2023-05-16T05:50:04.084Z,1019.33
2023-05-16T05:55:03.140Z,1019.25
2023-05-16T06:00:04.252Z,1019.24
2023-05-16T06:05:03.138Z,1019.17
2023-05-16T06:10:05.022Z,1019.07
2023-05-16T06:15:03.131Z,1019.01
2023-05-16T06:20:04.130Z,1019.01
2023-05-16T06:25:03.190Z,1018.98
2023-05-16T06:30:04.215Z,1018.92
2023-05-16T06:35:03.573Z,1018.91
2023-05-16T06:40:04.265Z,1018.87
2023-05-16T06:45:03.129Z,1018.83
2023-05-16T06:50:04.210Z,1018.86
2023-05-16T06:55:03.323Z,1018.79
2023-05-16T07:00:04.216Z,1018.64
2023-05-16T07:05:03.147Z,1018.64
2023-05-16T07:10:04.280Z,1018.6
2023-05-16T07:15:03.155Z,1018.59
2023-05-16T07:20:05.430Z,1018.59
2023-05-16T07:25:03.140Z,1018.53
2023-05-16T07:30:04.185Z,1018.54
2023-05-16T07:35:03.039Z,1018.53
2023-05-16T07:40:04.262Z,1018.57
2023-05-16T07:45:03.131Z,1018.57
2023-05-16T07:50:04.078Z,1018.59
2023-05-16T07:55:03.795Z,1018.55
2023-05-16T08:00:04.078Z,1018.52
2023-05-16T08:05:03.067Z,1018.54
2023-05-16T08:10:04.216Z,1018.54
2023-05-16T08:15:03.108Z,1018.54
2023-05-16T08:20:04.165Z,1018.64
2023-05-16T08:25:03.131Z,1018.74
2023-05-16T08:30:04.110Z,1018.71
2023-05-16T08:35:03.073Z,1018.72
2023-05-16T08:40:04.163Z,1018.74
2023-05-16T08:45:03.182Z,1018.88
2023-05-16T08:50:04.154Z,1018.91
2023-05-16T08:55:09.811Z,1018.99
2023-05-16T09:00:04.172Z,1018.95
2023-05-16T09:05:03.084Z,1018.98
2023-05-16T09:10:04.253Z,1019.03
2023-05-16T09:15:04.142Z,1019.08
2023-05-16T09:20:04.191Z,1019.09
2023-05-16T09:25:03.189Z,1019.14
2023-05-16T09:30:05.040Z,1019.21
2023-05-16T09:35:03.135Z,1019.25
2023-05-16T09:40:04.177Z,1019.26
2023-05-16T09:45:03.082Z,1019.33
2023-05-16T09:50:04.136Z,1019.43
2023-05-16T09:55:03.164Z,1019.5
2023-05-16T10:00:04.104Z,1019.57
2023-05-16T10:05:06.369Z,1019.58
2023-05-16T10:10:04.297Z,1019.58
2023-05-16T10:15:03.167Z,1019.6
2023-05-16T10:20:04.191Z,1019.64
2023-05-16T10:25:04.063Z,1019.71
2023-05-16T10:30:04.093Z,1019.81
2023-05-16T10:35:03.050Z,1019.9
2023-05-16T10:40:04.149Z,1019.98
2023-05-16T10:45:05.761Z,1020.05
2023-05-16T10:50:04.241Z,1020.08
2023-05-16T10:55:03.158Z,1020.11
2023-05-16T11:00:04.824Z,1020.17
2023-05-16T11:05:03.184Z,1020.19
2023-05-16T11:10:04.231Z,1020.26
2023-05-16T11:15:03.093Z,1020.33
2023-05-16T11:20:04.101Z,1020.38
2023-05-16T11:25:03.203Z,1020.46
2023-05-16T11:30:04.304Z,1020.53
2023-05-16T11:35:03.105Z,1020.5
2023-05-16T11:40:04.207Z,1020.5
2023-05-16T11:45:03.100Z,1020.52
2023-05-16T11:50:04.253Z,1020.55
2023-05-16T11:55:03.238Z,1020.57
2023-05-16T12:00:04.111Z,1020.63
2023-05-16T12:05:03.173Z,1020.66
2023-05-16T12:10:04.111Z,1020.75
2023-05-16T12:15:03.129Z,1020.75
2023-05-16T12:20:05.109Z,1020.78
2023-05-16T12:25:03.179Z,1020.83
2023-05-16T12:30:04.196Z,1020.9
2023-05-16T12:35:03.149Z,1020.94
2023-05-16T12:40:04.155Z,1020.96
2023-05-16T12:45:03.153Z,1021.01
2023-05-16T12:50:04.233Z,1021.05
2023-05-16T12:55:03.250Z,1021.13
2023-05-16T13:00:04.754Z,1021.19
2023-05-16T13:05:03.179Z,1021.2
2023-05-16T13:10:04.142Z,1021.2
2023-05-16T13:15:03.129Z,1021.16
2023-05-16T13:20:04.219Z,1021.13
2023-05-16T13:25:03.115Z,1021.16
2023-05-16T13:30:04.143Z,1021.1
2023-05-16T13:35:03.271Z,1021.1
2023-05-16T13:40:04.973Z,1021.13
2023-05-16T13:45:03.088Z,1021.05
2023-05-16T13:50:05.083Z,1021.01
2023-05-16T13:55:03.253Z,1020.99
2023-05-16T14:00:27.918Z,1020.92
2023-05-16T14:05:03.213Z,1020.89
2023-05-16T14:10:05.386Z,1020.89
2023-05-16T14:15:13.117Z,1020.82
2023-05-16T14:20:04.157Z,1020.79
2023-05-16T14:25:03.175Z,1020.71
2023-05-16T14:30:04.209Z,1020.62
2023-05-16T14:35:04.153Z,1020.58
2023-05-16T14:40:04.036Z,1020.48
2023-05-16T14:45:03.133Z,1020.4
2023-05-16T14:50:04.277Z,1020.38
2023-05-16T14:55:03.163Z,1020.26
2023-05-16T15:00:04.227Z,1020.09
2023-05-16T15:05:03.213Z,1020.04
2023-05-16T15:10:04.233Z,1019.99
2023-05-16T15:15:04.176Z,1019.9
2023-05-16T15:20:04.151Z,1019.71
2023-05-16T15:25:03.107Z,1019.58
2023-05-16T15:30:05.194Z,1019.55
2023-05-16T15:35:03.213Z,1019.42
2023-05-16T15:40:04.205Z,1019.4
2023-05-16T15:45:03.217Z,1019.29
2023-05-16T15:50:04.186Z,1019.26
2023-05-16T15:55:03.186Z,1019.17
2023-05-16T16:00:04.149Z,1019.08
2023-05-16T16:05:03.123Z,1018.94
2023-05-16T16:10:04.270Z,1018.85
2023-05-16T16:15:03.058Z,1018.77
2023-05-16T16:20:04.237Z,1018.69
2023-05-16T16:25:03.164Z,1018.55
2023-05-16T16:30:04.254Z,1018.36
2023-05-16T16:35:03.190Z,1018.26
2023-05-16T16:40:04.192Z,1018.15
2023-05-16T16:45:03.122Z,1018.07
2023-05-16T16:50:04.165Z,1018.04
2023-05-16T16:55:03.140Z,1017.93
2023-05-16T17:00:04.259Z,1017.83
2023-05-16T17:05:03.186Z,1017.74
2023-05-16T17:10:04.320Z,1017.67
2023-05-16T17:15:03.130Z,1017.53
2023-05-16T17:20:04.267Z,1017.47
2023-05-16T17:25:03.152Z,1017.37
2023-05-16T17:30:04.170Z,1017.29
2023-05-16T17:35:03.170Z,1017.3
2023-05-16T17:40:04.120Z,1017.25
2023-05-16T17:45:03.099Z,1017.19
2023-05-16T17:50:05.076Z,1017.13
2023-05-16T17:55:03.116Z,1017.04
2023-05-16T18:00:04.151Z,1017.0
2023-05-16T18:05:03.162Z,1016.97
2023-05-16T18:10:04.192Z,1016.93
2023-05-16T18:15:03.306Z,1016.93
2023-05-16T18:20:04.251Z,1016.88
2023-05-16T18:25:03.101Z,1016.85
2023-05-16T18:30:04.245Z,1016.88
2023-05-16T18:35:03.078Z,1016.8
2023-05-16T18:40:05.040Z,1016.76
2023-05-16T18:45:03.179Z,1016.75
2023-05-16T18:50:04.128Z,1016.69
2023-05-16T18:55:03.166Z,1016.68
2023-05-16T19:00:04.215Z,1016.62
2023-05-16T19:05:03.240Z,1016.67
2023-05-16T19:10:04.385Z,1016.67
2023-05-16T19:15:04.171Z,1016.73
2023-05-16T19:20:04.273Z,1016.64
2023-05-16T19:25:03.214Z,1016.72
2023-05-16T19:30:04.232Z,1016.67
2023-05-16T19:35:03.307Z,1016.68
2023-05-16T19:40:04.257Z,1016.77
2023-05-16T19:45:03.107Z,1016.79
2023-05-16T19:50:04.408Z,1016.8
2023-05-16T19:55:03.133Z,1016.85
2023-05-16T20:00:04.228Z,1016.87
2023-05-16T20:05:03.298Z,1016.94
2023-05-16T20:10:04.317Z,1016.99
2023-05-16T20:15:04.694Z,1017.01
2023-05-16T20:20:04.350Z,1017.05
2023-05-16T20:25:03.107Z,1017.05
2023-05-16T20:30:04.247Z,1017.08
2023-05-16T20:35:03.185Z,1017.1
2023-05-16T20:40:04.238Z,1017.15
2023-05-16T20:45:03.165Z,1017.13
2023-05-16T20:50:04.341Z,1017.2
2023-05-16T20:55:03.277Z,1017.23
2023-05-16T21:00:04.258Z,1017.28
2023-05-16T21:05:15.014Z,1017.31
2023-05-16T21:10:04.205Z,1017.35
2023-05-16T21:15:03.140Z,1017.33
2023-05-16T21:20:04.214Z,1017.37
2023-05-16T21:25:03.137Z,1017.39
2023-05-16T21:30:05.220Z,1017.43
2023-05-16T21:35:03.211Z,1017.42
2023-05-16T21:40:04.200Z,1017.4
2023-05-16T21:45:03.113Z,1017.49
2023-05-16T21:50:04.238Z,1017.59
2023-05-16T21:55:03.296Z,1017.67
2023-05-16T22:00:04.106Z,1017.7
2023-05-16T22:05:03.303Z,1017.73
2023-05-16T22:10:04.294Z,1017.77
2023-05-16T22:15:03.223Z,1017.84
2023-05-16T22:20:04.127Z,1017.95
2023-05-16T22:25:03.109Z,1018.01
2023-05-16T22:30:04.233Z,1018.09
2023-05-16T22:35:03.233Z,1018.25
2023-05-16T22:40:04.200Z,1018.32
2023-05-16T22:45:03.118Z,1018.37
2023-05-16T22:50:04.061Z,1018.37
2023-05-16T22:55:03.100Z,1018.47
2023-05-16T23:00:04.359Z,1018.53
2023-05-16T23:05:03.203Z,1018.62
2023-05-16T23:10:03.939Z,1018.68
2023-05-16T23:15:03.237Z,1018.72
2023-05-16T23:20:04.153Z,1018.73
2023-05-16T23:25:03.135Z,1018.71
2023-05-16T23:30:04.238Z,1018.78
2023-05-16T23:35:03.429Z,1018.84
2023-05-16T23:40:04.263Z,1019.01
2023-05-16T23:45:03.223Z,1019.08
2023-05-16T23:50:04.260Z,1019.11
2023-05-16T23:55:03.128Z,1019.16
